createdAt,value
2022-11-03T00:00:12.774Z,23.13
2022-11-03T00:01:16.870Z,21.85
2022-11-03T00:02:19.668Z,22.33
2022-11-03T00:03:23.461Z,21.20
2022-11-03T00:04:26.122Z,25.50
2022-11-03T00:05:46.878Z,30.17
2022-11-03T00:06:51.599Z,23.00
2022-11-03T00:07:54.184Z,26.23
2022-11-03T00:08:59.789Z,23.60
2022-11-03T00:10:02.361Z,26.92
2022-11-03T00:11:11.637Z,25.73
2022-11-03T00:12:14.362Z,22.30
2022-11-03T00:13:18.020Z,21.50
2022-11-03T00:14:23.179Z,22.23
2022-11-03T00:15:25.768Z,24.70
2022-11-03T00:16:29.449Z,24.17
2022-11-03T00:17:32.042Z,21.88
2022-11-03T00:18:35.989Z,21.70
2022-11-03T00:19:38.611Z,22.17
2022-11-03T00:20:42.303Z,25.17
2022-11-03T00:21:46.741Z,24.42
2022-11-03T00:22:49.343Z,21.35
2022-11-03T00:23:53.524Z,19.20
2022-11-03T00:24:56.241Z,22.33
2022-11-03T00:26:10.479Z,20.98
2022-11-03T00:27:13.110Z,20.85
2022-11-03T00:28:16.699Z,22.30
2022-11-03T00:29:19.327Z,24.52
2022-11-03T00:30:24.413Z,24.40
2022-11-03T00:31:28.384Z,27.02
2022-11-03T00:32:32.102Z,25.30
2022-11-03T00:33:34.918Z,26.63
2022-11-03T00:34:38.573Z,26.85
2022-11-03T00:35:41.210Z,28.40
2022-11-03T00:36:45.880Z,25.60
2022-11-03T00:37:48.589Z,23.98
2022-11-03T00:38:52.785Z,25.17
2022-11-03T00:39:55.411Z,24.92
2022-11-03T00:41:00.351Z,28.73
2022-11-03T00:42:02.973Z,26.80
2022-11-03T00:43:07.106Z,31.52
2022-11-03T00:44:11.173Z,47.95
2022-11-03T00:45:14.849Z,35.90
2022-11-03T00:46:19.655Z,32.17
2022-11-03T00:47:24.373Z,29.27
2022-11-03T00:48:29.991Z,33.67
2022-11-03T00:49:33.743Z,27.38
2022-11-03T00:50:36.352Z,31.20
2022-11-03T00:51:39.929Z,28.13
2022-11-03T00:52:42.551Z,29.83
2022-11-03T00:53:47.773Z,27.95
2022-11-03T00:54:54.325Z,31.13
2022-11-03T00:55:59.232Z,32.45
2022-11-03T00:57:01.821Z,31.70
2022-11-03T00:58:05.570Z,30.33
2022-11-03T00:59:09.342Z,29.20
2022-11-03T01:00:14.122Z,32.90
2022-11-03T01:01:19.928Z,32.03
2022-11-03T01:02:23.778Z,29.02
2022-11-03T01:03:26.578Z,29.30
2022-11-03T01:04:47.535Z,31.23
2022-11-03T01:06:08.618Z,28.40
2022-11-03T01:07:12.270Z,24.67
2022-11-03T01:08:14.940Z,26.60
2022-11-03T01:09:19.560Z,32.72
2022-11-03T01:10:22.240Z,26.10
2022-11-03T01:11:43.691Z,25.65
2022-11-03T01:12:47.443Z,26.88
2022-11-03T01:13:50.161Z,29.75
2022-11-03T01:14:54.983Z,28.80
2022-11-03T01:15:58.876Z,27.02
2022-11-03T01:17:04.283Z,27.67
2022-11-03T01:18:06.882Z,27.73
2022-11-03T01:19:10.691Z,22.90
2022-11-03T01:20:13.311Z,24.50
2022-11-03T01:21:17.141Z,24.90
2022-11-03T01:22:21.766Z,22.75
2022-11-03T01:23:24.653Z,21.67
2022-11-03T01:24:28.552Z,22.42
2022-11-03T01:25:31.740Z,22.33
2022-11-03T01:26:35.380Z,20.50
2022-11-03T01:27:38.022Z,21.00
2022-11-03T01:28:43.061Z,21.73
2022-11-03T01:29:45.831Z,20.15
2022-11-03T01:30:49.493Z,23.67
2022-11-03T01:31:53.291Z,20.42
2022-11-03T01:32:57.322Z,24.77
2022-11-03T01:34:01.024Z,21.67
2022-11-03T01:35:04.101Z,22.80
2022-11-03T01:36:08.392Z,21.45
2022-11-03T01:37:10.960Z,23.23
2022-11-03T01:38:14.644Z,21.35
2022-11-03T01:39:18.572Z,23.55
2022-11-03T01:40:22.353Z,27.20
2022-11-03T01:41:26.503Z,27.52
2022-11-03T01:42:30.180Z,27.45
2022-11-03T01:43:32.943Z,19.52
2022-11-03T01:44:38.408Z,21.90
2022-11-03T01:45:41.134Z,23.95
2022-11-03T01:46:50.029Z,21.58
2022-11-03T01:47:53.723Z,23.92
2022-11-03T01:49:01.344Z,28.83
2022-11-03T01:50:07.601Z,29.77
2022-11-03T01:51:11.573Z,24.17
2022-11-03T01:52:19.943Z,25.83
2022-11-03T01:53:23.070Z,25.92
2022-11-03T01:54:28.338Z,27.38
2022-11-03T01:55:33.012Z,25.33
2022-11-03T01:56:38.640Z,25.30
2022-11-03T01:57:44.083Z,27.50
2022-11-03T01:58:49.582Z,24.27
2022-11-03T01:59:52.630Z,22.48
2022-11-03T02:01:03.320Z,21.25
2022-11-03T02:02:06.344Z,20.70
2022-11-03T02:03:10.423Z,23.77
2022-11-03T02:04:17.743Z,21.20
2022-11-03T02:05:24.240Z,18.83
2022-11-03T02:06:28.242Z,19.92
2022-11-03T02:07:36.763Z,21.10
2022-11-03T02:08:44.538Z,26.00
2022-11-03T02:09:48.229Z,21.42
2022-11-03T02:10:51.566Z,21.27
2022-11-03T02:12:10.102Z,18.23
2022-11-03T02:13:17.081Z,20.67
2022-11-03T02:14:21.049Z,21.17
2022-11-03T02:15:24.130Z,21.45
2022-11-03T02:16:29.012Z,22.63
2022-11-03T02:17:33.689Z,26.17
2022-11-03T02:18:37.338Z,31.70
2022-11-03T02:19:43.810Z,24.75
2022-11-03T02:20:48.219Z,25.73
2022-11-03T02:21:58.741Z,32.80
2022-11-03T02:23:19.171Z,30.35
2022-11-03T02:24:26.717Z,29.60
2022-11-03T02:25:39.083Z,27.40
2022-11-03T02:26:42.622Z,28.05
2022-11-03T02:27:46.719Z,24.45
2022-11-03T02:28:50.769Z,23.17
2022-11-03T02:29:53.663Z,21.98
2022-11-03T02:31:05.471Z,21.70
2022-11-03T02:32:12.463Z,20.70
2022-11-03T02:33:25.611Z,22.50
2022-11-03T02:34:32.681Z,22.35
2022-11-03T02:35:42.139Z,22.63
2022-11-03T02:36:48.833Z,22.80
2022-11-03T02:37:55.960Z,22.10
2022-11-03T02:39:01.250Z,24.60
2022-11-03T02:40:06.713Z,24.20
2022-11-03T02:41:12.641Z,23.83
2022-11-03T02:42:16.234Z,23.77
2022-11-03T02:43:20.420Z,21.02
2022-11-03T02:44:25.717Z,23.33
2022-11-03T02:45:28.859Z,24.38
2022-11-03T02:46:33.500Z,22.05
2022-11-03T02:47:37.877Z,22.05
2022-11-03T02:48:41.808Z,21.85
2022-11-03T02:49:47.949Z,19.80
2022-11-03T02:50:51.728Z,21.20
2022-11-03T02:52:00.872Z,20.35
2022-11-03T02:53:04.831Z,22.17
2022-11-03T02:54:12.332Z,19.33
2022-11-03T02:55:19.438Z,18.88
2022-11-03T02:56:26.057Z,17.02
2022-11-03T02:57:30.699Z,18.15
2022-11-03T02:58:39.186Z,16.48
2022-11-03T02:59:44.699Z,17.33
2022-11-03T03:00:51.619Z,17.13
2022-11-03T03:01:56.995Z,18.65
2022-11-03T03:03:04.710Z,17.70
2022-11-03T03:04:10.168Z,17.15
2022-11-03T03:05:16.463Z,17.10
2022-11-03T03:06:24.064Z,19.17
2022-11-03T03:07:30.291Z,20.77
2022-11-03T03:08:33.503Z,18.88
2022-11-03T03:09:43.113Z,27.00
2022-11-03T03:10:47.283Z,23.83
2022-11-03T03:11:54.449Z,23.75
2022-11-03T03:12:58.604Z,27.27
2022-11-03T03:14:02.257Z,33.17
2022-11-03T03:15:08.329Z,30.02
2022-11-03T03:16:13.282Z,35.75
2022-11-03T03:17:21.012Z,24.92
2022-11-03T03:18:26.671Z,25.10
2022-11-03T03:19:39.443Z,26.88
2022-11-03T03:20:45.615Z,23.77
2022-11-03T03:21:51.161Z,23.55
2022-11-03T03:22:57.059Z,26.13
2022-11-03T03:24:04.633Z,24.75
2022-11-03T03:25:12.422Z,23.88
2022-11-03T03:26:21.635Z,24.92
2022-11-03T03:27:27.310Z,24.75
2022-11-03T03:28:34.153Z,23.75
2022-11-03T03:29:41.559Z,23.38
2022-11-03T03:30:46.891Z,23.58
2022-11-03T03:31:53.421Z,22.73
2022-11-03T03:32:58.282Z,25.38
2022-11-03T03:34:10.302Z,27.83
2022-11-03T03:35:22.142Z,23.70
2022-11-03T03:36:26.699Z,25.92
2022-11-03T03:37:31.902Z,30.58
2022-11-03T03:38:37.540Z,28.67
2022-11-03T03:39:42.481Z,29.27
2022-11-03T03:40:47.542Z,36.40
2022-11-03T03:41:51.401Z,24.83
2022-11-03T03:42:55.605Z,27.30
2022-11-03T03:44:00.982Z,33.13
2022-11-03T03:45:05.025Z,22.80
2022-11-03T03:46:09.542Z,22.90
2022-11-03T03:47:14.992Z,27.15
2022-11-03T03:48:19.425Z,28.77
2022-11-03T03:49:22.194Z,23.02
2022-11-03T03:50:26.330Z,22.77
2022-11-03T03:51:29.671Z,24.38
2022-11-03T03:52:36.121Z,22.83
2022-11-03T03:53:38.966Z,21.25
2022-11-03T03:54:42.802Z,21.30
2022-11-03T03:55:47.597Z,21.63
2022-11-03T03:56:55.558Z,21.55
2022-11-03T03:58:00.534Z,21.13
2022-11-03T03:59:04.880Z,20.20
2022-11-03T04:00:09.736Z,21.70
2022-11-03T04:01:16.200Z,23.67
2022-11-03T04:02:19.005Z,27.08
2022-11-03T04:03:24.537Z,28.27
2022-11-03T04:04:27.142Z,25.88
2022-11-03T04:05:30.876Z,23.38
2022-11-03T04:06:33.556Z,23.55
2022-11-03T04:07:49.150Z,24.92
2022-11-03T04:08:51.772Z,27.60
2022-11-03T04:09:55.557Z,35.95
2022-11-03T04:11:16.864Z,26.13
2022-11-03T04:12:37.844Z,31.20
2022-11-03T04:14:00.088Z,37.47
2022-11-03T04:15:21.210Z,31.67
2022-11-03T04:16:42.306Z,29.90
2022-11-03T04:18:05.871Z,32.13
2022-11-03T04:19:28.982Z,30.52
2022-11-03T04:20:50.107Z,29.02
2022-11-03T04:22:11.289Z,35.15
2022-11-03T04:23:15.157Z,29.33
2022-11-03T04:24:17.899Z,31.08
2022-11-03T04:25:21.559Z,34.67
2022-11-03T04:26:24.462Z,43.22
2022-11-03T04:27:31.121Z,47.30
2022-11-03T04:28:33.765Z,47.15
2022-11-03T04:29:38.919Z,49.50
2022-11-03T04:30:41.999Z,45.35
2022-11-03T04:31:46.187Z,49.78
2022-11-03T04:32:49.944Z,57.90
2022-11-03T04:33:53.577Z,58.28
2022-11-03T04:34:56.220Z,61.72
2022-11-03T04:36:01.007Z,59.85
2022-11-03T04:37:06.570Z,73.38
2022-11-03T04:38:21.479Z,59.85
2022-11-03T04:39:24.088Z,67.97
2022-11-03T04:40:28.120Z,54.63
2022-11-03T04:41:34.538Z,47.70
2022-11-03T04:42:37.242Z,61.53
2022-11-03T04:43:40.920Z,57.90
2022-11-03T04:44:45.176Z,49.90
2022-11-03T04:45:49.967Z,46.58
2022-11-03T04:46:54.507Z,62.20
2022-11-03T04:47:59.854Z,52.10
2022-11-03T04:49:02.617Z,48.58
2022-11-03T04:50:08.559Z,37.60
2022-11-03T04:51:15.575Z,39.30
2022-11-03T04:52:21.576Z,37.13
2022-11-03T04:53:24.599Z,53.70
2022-11-03T04:54:28.695Z,46.55
2022-11-03T04:55:31.338Z,71.82
2022-11-03T04:56:35.177Z,27.73
2022-11-03T04:57:37.871Z,35.17
2022-11-03T04:58:41.879Z,26.85
2022-11-03T04:59:48.798Z,28.23
2022-11-03T05:00:52.891Z,34.47
2022-11-03T05:01:57.226Z,42.33
2022-11-03T05:02:59.940Z,36.88
2022-11-03T05:04:03.649Z,33.78
2022-11-03T05:05:16.071Z,37.80
2022-11-03T05:06:24.027Z,65.93
2022-11-03T05:07:35.121Z,47.33
2022-11-03T05:08:37.838Z,72.88
2022-11-03T05:09:42.987Z,42.03
2022-11-03T05:10:46.509Z,36.55
2022-11-03T05:11:50.527Z,67.10
2022-11-03T05:12:54.331Z,46.33
2022-11-03T05:14:01.439Z,51.38
2022-11-03T05:15:11.408Z,53.20
2022-11-03T05:16:15.627Z,56.63
2022-11-03T05:17:24.539Z,64.03
2022-11-03T05:18:31.230Z,44.80
2022-11-03T05:19:34.849Z,62.03
2022-11-03T05:20:41.241Z,56.83
2022-11-03T05:21:44.956Z,55.38
2022-11-03T05:22:47.550Z,104.70
2022-11-03T05:23:54.307Z,90.80
2022-11-03T05:24:59.019Z,37.80
2022-11-03T05:26:03.668Z,41.13
2022-11-03T05:27:09.756Z,45.30
2022-11-03T05:28:22.900Z,48.38
2022-11-03T05:29:28.162Z,60.42
2022-11-03T05:30:32.932Z,65.18
2022-11-03T05:31:38.599Z,67.00
2022-11-03T05:32:42.599Z,47.28
2022-11-03T05:33:47.796Z,49.45
2022-11-03T05:34:53.137Z,42.42
2022-11-03T05:35:57.178Z,54.15
2022-11-03T05:37:01.416Z,73.40
2022-11-03T05:38:07.570Z,54.20
2022-11-03T05:39:24.600Z,82.57
2022-11-03T05:40:27.519Z,52.95
2022-11-03T05:41:32.269Z,44.15
2022-11-03T05:42:37.137Z,58.80
2022-11-03T05:43:40.923Z,47.67
2022-11-03T05:44:44.816Z,43.08
2022-11-03T05:45:52.659Z,63.00
2022-11-03T05:46:55.464Z,68.15
2022-11-03T05:48:00.039Z,65.82
2022-11-03T05:49:04.067Z,52.47
2022-11-03T05:50:20.856Z,43.90
2022-11-03T05:51:25.885Z,38.63
2022-11-03T05:52:30.250Z,41.42
2022-11-03T05:53:36.468Z,40.63
2022-11-03T05:54:40.197Z,48.13
2022-11-03T05:55:43.220Z,150.75
2022-11-03T05:56:46.927Z,128.88
2022-11-03T05:57:49.529Z,46.53
2022-11-03T05:58:53.969Z,62.40
2022-11-03T05:59:56.940Z,64.90
2022-11-03T06:01:02.818Z,43.08
2022-11-03T06:02:12.782Z,42.53
2022-11-03T06:03:18.219Z,41.97
2022-11-03T06:04:24.584Z,40.90
2022-11-03T06:05:28.809Z,42.92
2022-11-03T06:06:36.617Z,44.63
2022-11-03T06:07:39.276Z,37.15
2022-11-03T06:08:45.891Z,32.83
2022-11-03T06:09:48.957Z,36.20
2022-11-03T06:10:54.839Z,42.10
2022-11-03T06:11:59.826Z,47.38
2022-11-03T06:13:07.183Z,47.70
2022-11-03T06:14:16.578Z,46.17
2022-11-03T06:15:29.478Z,62.05
2022-11-03T06:16:41.891Z,45.45
2022-11-03T06:17:44.498Z,42.30
2022-11-03T06:18:48.198Z,59.40
2022-11-03T06:19:53.241Z,77.65
2022-11-03T06:20:59.529Z,51.60
2022-11-03T06:22:07.155Z,45.35
2022-11-03T06:23:12.990Z,47.65
2022-11-03T06:24:17.958Z,50.60
2022-11-03T06:25:31.731Z,58.63
2022-11-03T06:26:34.379Z,62.17
2022-11-03T06:27:38.076Z,73.32
2022-11-03T06:28:41.956Z,70.18
2022-11-03T06:29:48.388Z,85.55
2022-11-03T06:30:52.322Z,84.10
2022-11-03T06:31:58.564Z,79.82
2022-11-03T06:33:02.678Z,86.85
2022-11-03T06:34:19.777Z,62.78
2022-11-03T06:35:23.462Z,67.88
2022-11-03T06:36:28.319Z,64.43
2022-11-03T06:37:33.765Z,60.72
2022-11-03T06:38:37.490Z,54.17
2022-11-03T06:39:40.207Z,67.07
2022-11-03T06:40:43.948Z,55.80
2022-11-03T06:41:46.646Z,58.20
2022-11-03T06:42:50.350Z,56.40
2022-11-03T06:43:54.582Z,51.72
2022-11-03T06:44:57.224Z,55.42
2022-11-03T06:46:02.957Z,53.35
2022-11-03T06:47:18.729Z,69.03
2022-11-03T06:48:25.197Z,56.08
2022-11-03T06:49:29.980Z,46.10
2022-11-03T06:50:34.376Z,54.92
2022-11-03T06:51:38.329Z,49.25
2022-11-03T06:52:45.352Z,54.05
2022-11-03T06:53:49.949Z,52.78
2022-11-03T06:54:56.209Z,46.72
2022-11-03T06:56:00.655Z,54.40
2022-11-03T06:57:03.319Z,52.58
2022-11-03T06:58:17.340Z,61.22
2022-11-03T06:59:20.475Z,46.50
2022-11-03T07:00:34.602Z,57.20
2022-11-03T07:01:39.150Z,69.22
2022-11-03T07:02:57.028Z,55.58
2022-11-03T07:04:02.537Z,54.17
2022-11-03T07:05:10.141Z,55.63
2022-11-03T07:06:16.808Z,60.10
2022-11-03T07:07:19.500Z,55.03
2022-11-03T07:08:25.295Z,52.47
2022-11-03T07:09:29.200Z,60.05
2022-11-03T07:10:33.303Z,59.80
2022-11-03T07:11:39.284Z,55.80
2022-11-03T07:12:42.290Z,56.50
2022-11-03T07:13:46.201Z,51.97
2022-11-03T07:14:49.864Z,49.63
2022-11-03T07:15:52.738Z,51.17
2022-11-03T07:16:58.076Z,50.92
2022-11-03T07:18:03.145Z,51.05
2022-11-03T07:19:09.138Z,50.03
2022-11-03T07:20:14.847Z,51.35
2022-11-03T07:21:33.529Z,49.05
2022-11-03T07:22:37.175Z,49.85
2022-11-03T07:23:42.128Z,47.58
2022-11-03T07:24:49.358Z,46.75
2022-11-03T07:25:54.760Z,46.45
2022-11-03T07:27:04.157Z,46.45
2022-11-03T07:28:07.007Z,47.65
2022-11-03T07:29:13.903Z,45.67
2022-11-03T07:30:21.374Z,46.65
2022-11-03T07:31:27.120Z,46.00
2022-11-03T07:32:31.760Z,46.05
2022-11-03T07:33:36.812Z,45.92
2022-11-03T07:34:40.515Z,46.63
2022-11-03T07:38:20.284Z,44.70
2022-11-03T07:39:24.047Z,44.42
2022-11-03T07:40:27.773Z,46.33
2022-11-03T07:41:35.036Z,44.80
2022-11-03T07:42:38.008Z,42.05
2022-11-03T07:43:43.690Z,44.85
2022-11-03T07:44:47.418Z,42.90
2022-11-03T07:45:50.754Z,41.13
2022-11-03T07:46:54.396Z,41.25
2022-11-03T07:48:00.461Z,43.45
2022-11-03T07:49:10.037Z,40.72
2022-11-03T07:50:15.621Z,42.65
2022-11-03T07:51:22.704Z,43.10
2022-11-03T07:52:27.665Z,42.60
2022-11-03T07:53:37.539Z,42.97
2022-11-03T07:54:41.295Z,41.90
2022-11-03T07:55:45.525Z,43.15
2022-11-03T07:56:52.268Z,40.63
2022-11-03T07:57:56.127Z,41.55
2022-11-03T07:59:02.549Z,41.47
2022-11-03T08:00:10.276Z,43.05
2022-11-03T08:01:26.025Z,41.05
2022-11-03T08:02:33.586Z,41.22
2022-11-03T08:03:42.941Z,39.67
2022-11-03T08:04:48.299Z,39.42
2022-11-03T08:05:51.053Z,37.50
2022-11-03T08:06:55.587Z,38.60
2022-11-03T08:07:58.248Z,38.30
2022-11-03T08:09:02.002Z,38.50
2022-11-03T08:10:07.018Z,38.90
2022-11-03T08:11:11.101Z,39.15
2022-11-03T08:12:13.844Z,37.78
2022-11-03T08:13:17.540Z,38.65
2022-11-03T08:14:21.211Z,40.25
2022-11-03T08:15:24.189Z,38.78
2022-11-03T08:16:28.020Z,38.55
2022-11-03T08:17:30.670Z,40.15
2022-11-03T08:18:34.417Z,38.17
2022-11-03T08:19:38.205Z,37.78
2022-11-03T08:20:42.289Z,38.40
2022-11-03T08:21:45.941Z,35.88
2022-11-03T08:23:04.940Z,37.20
2022-11-03T08:24:12.541Z,35.20
2022-11-03T08:25:15.327Z,33.03
2022-11-03T08:26:19.231Z,34.05
2022-11-03T08:27:23.050Z,32.92
2022-11-03T08:28:25.799Z,32.83
2022-11-03T08:29:29.620Z,32.58
2022-11-03T08:30:32.297Z,31.73
2022-11-03T08:31:36.010Z,30.85
2022-11-03T08:32:38.764Z,31.85
2022-11-03T08:33:42.592Z,29.15
2022-11-03T08:34:46.486Z,27.30
2022-11-03T08:35:51.689Z,28.70
2022-11-03T08:36:54.340Z,27.50
2022-11-03T08:37:58.129Z,27.42
2022-11-03T08:39:01.923Z,27.20
2022-11-03T08:40:05.281Z,26.42
2022-11-03T08:41:09.044Z,27.00
2022-11-03T08:42:11.869Z,25.67
2022-11-03T08:43:15.658Z,27.00
2022-11-03T08:44:19.577Z,26.58
2022-11-03T08:45:22.272Z,25.88
2022-11-03T08:46:26.128Z,27.02
2022-11-03T08:47:28.955Z,26.60
2022-11-03T08:48:32.654Z,24.95
2022-11-03T08:49:35.347Z,24.42
2022-11-03T08:50:39.250Z,22.02
2022-11-03T08:51:45.038Z,21.25
2022-11-03T08:52:47.980Z,20.35
2022-11-03T08:53:54.246Z,21.42
2022-11-03T08:56:10.306Z,21.00
2022-11-03T08:57:15.824Z,19.55
2022-11-03T08:58:19.521Z,20.33
2022-11-03T08:59:22.191Z,19.15
2022-11-03T09:00:25.916Z,20.55
2022-11-03T09:01:29.672Z,20.10
2022-11-03T09:02:32.524Z,17.98
2022-11-03T09:03:36.306Z,16.60
2022-11-03T09:04:39.000Z,15.50
2022-11-03T09:05:42.967Z,16.15
2022-11-03T09:06:47.067Z,13.73
2022-11-03T09:10:42.179Z,14.23
2022-11-03T09:11:45.278Z,13.98
2022-11-03T09:12:48.997Z,12.50
2022-11-03T09:13:51.677Z,14.35
2022-11-03T09:14:55.340Z,13.25
2022-11-03T09:15:58.049Z,13.13
2022-11-03T09:18:10.601Z,12.73
2022-11-03T09:19:13.501Z,10.10
2022-11-03T09:20:17.197Z,8.65
2022-11-03T09:21:19.830Z,9.45
2022-11-03T09:22:25.037Z,9.70
2022-11-03T09:23:28.730Z,9.13
2022-11-03T09:24:31.430Z,8.18
2022-11-03T09:25:35.179Z,8.35
2022-11-03T09:26:38.686Z,9.00
2022-11-03T09:27:42.597Z,8.50
2022-11-03T09:28:46.379Z,8.32
2022-11-03T09:30:11.617Z,7.97
2022-11-03T09:31:14.159Z,8.50
2022-11-03T09:32:23.038Z,7.97
2022-11-03T09:33:27.459Z,8.30
2022-11-03T09:34:30.568Z,8.30
2022-11-03T09:35:34.297Z,6.85
2022-11-03T09:36:37.021Z,8.32
2022-11-03T09:37:42.307Z,8.18
2022-11-03T09:38:45.181Z,7.72
2022-11-03T09:39:48.866Z,7.38
2022-11-03T09:40:52.689Z,7.63
2022-11-03T09:41:59.292Z,7.93
2022-11-03T09:43:03.357Z,8.32
2022-11-03T09:44:07.382Z,6.57
2022-11-03T09:45:12.203Z,6.68
2022-11-03T09:46:16.738Z,6.32
2022-11-03T09:47:25.296Z,6.82
2022-11-03T09:48:30.508Z,5.97
2022-11-03T09:49:35.107Z,6.72
2022-11-03T09:50:38.241Z,6.75
2022-11-03T09:51:43.209Z,6.63
2022-11-03T09:52:51.469Z,6.25
2022-11-03T09:53:56.928Z,7.40
2022-11-03T09:55:00.934Z,6.60
2022-11-03T09:56:03.639Z,5.60
2022-11-03T09:57:13.109Z,7.18
2022-11-03T09:58:17.801Z,6.72
2022-11-03T09:59:23.340Z,6.30
2022-11-03T10:00:27.576Z,5.82
2022-11-03T10:01:31.323Z,4.07
2022-11-03T10:02:39.016Z,3.92
2022-11-03T10:03:41.809Z,3.05
2022-11-03T10:04:45.700Z,2.90
2022-11-03T10:05:49.685Z,3.40
2022-11-03T10:06:52.419Z,4.57
2022-11-03T10:08:00.435Z,3.47
2022-11-03T10:09:03.197Z,3.60
2022-11-03T10:10:07.890Z,3.08
2022-11-03T10:11:11.879Z,3.30
2022-11-03T10:12:15.766Z,3.53
2022-11-03T10:13:30.784Z,4.07
2022-11-03T10:14:34.626Z,3.42
2022-11-03T10:15:37.339Z,2.78
2022-11-03T10:16:43.038Z,2.85
2022-11-03T10:17:47.558Z,3.85
2022-11-03T10:18:51.619Z,3.30
2022-11-03T10:19:58.228Z,5.20
2022-11-03T10:21:07.167Z,3.42
2022-11-03T10:22:09.979Z,2.90
2022-11-03T10:23:15.099Z,2.80
2022-11-03T10:24:18.975Z,2.90
2022-11-03T10:25:44.245Z,3.17
2022-11-03T10:26:48.128Z,3.15
2022-11-03T10:27:51.831Z,3.00
2022-11-03T10:28:59.519Z,3.15
2022-11-03T10:30:10.890Z,3.03
2022-11-03T10:31:21.534Z,2.65
2022-11-03T10:32:33.720Z,3.25
2022-11-03T10:33:39.337Z,3.03
2022-11-03T10:34:43.155Z,2.53
2022-11-03T10:35:45.827Z,2.33
2022-11-03T10:36:50.711Z,2.58
2022-11-03T10:37:53.549Z,3.00
2022-11-03T10:38:58.858Z,3.35
2022-11-03T10:40:01.491Z,2.60
2022-11-03T10:41:15.019Z,2.15
2022-11-03T10:42:23.199Z,2.33
2022-11-03T10:43:25.901Z,2.70
2022-11-03T10:44:30.299Z,4.05
2022-11-03T10:45:33.979Z,2.90
2022-11-03T10:46:50.818Z,2.45
2022-11-03T10:48:02.018Z,2.78
2022-11-03T10:50:24.119Z,2.30
2022-11-03T10:51:26.779Z,2.55
2022-11-03T10:52:31.511Z,2.60
2022-11-03T10:53:34.392Z,2.70
2022-11-03T10:54:39.610Z,2.97
2022-11-03T10:55:43.389Z,2.40
2022-11-03T10:56:48.339Z,2.67
2022-11-03T10:57:53.137Z,2.22
2022-11-03T11:00:09.644Z,2.53
2022-11-03T11:01:13.595Z,2.55
2022-11-03T11:02:18.739Z,2.30
2022-11-03T11:03:22.611Z,2.10
2022-11-03T11:04:25.401Z,2.42
2022-11-03T11:05:29.339Z,2.42
2022-11-03T11:06:33.100Z,2.63
2022-11-03T11:07:40.384Z,2.45
2022-11-03T11:08:43.189Z,2.40
2022-11-03T11:09:48.490Z,2.47
2022-11-03T11:10:52.369Z,2.88
2022-11-03T11:12:07.073Z,2.30
2022-11-03T11:13:29.020Z,2.70
2022-11-03T11:14:40.938Z,4.25
2022-11-03T11:15:46.277Z,1.98
2022-11-03T11:16:51.191Z,3.78
2022-11-03T11:17:54.918Z,2.40
2022-11-03T11:19:02.589Z,2.10
2022-11-03T11:20:37.620Z,2.78
2022-11-03T11:22:04.704Z,2.30
2022-11-03T11:23:44.808Z,2.22
2022-11-03T11:25:03.587Z,2.60
2022-11-03T11:26:12.223Z,2.10
2022-11-03T11:28:07.473Z,2.28
2022-11-03T11:29:44.782Z,3.55
2022-11-03T11:30:57.179Z,2.63
2022-11-03T11:32:00.929Z,2.88
2022-11-03T11:33:15.417Z,3.13
2022-11-03T11:34:40.685Z,2.63
2022-11-03T11:36:21.299Z,2.33
2022-11-03T11:37:34.560Z,2.53
2022-11-03T11:38:58.220Z,2.25
2022-11-03T11:40:04.191Z,2.53
2022-11-03T11:41:06.960Z,2.50
2022-11-03T11:42:14.732Z,2.28
2022-11-03T11:43:27.418Z,2.40
2022-11-03T11:44:59.091Z,3.08
2022-11-03T11:46:42.588Z,3.53
2022-11-03T11:47:52.257Z,2.90
2022-11-03T11:49:03.721Z,3.83
2022-11-03T11:50:28.214Z,3.22
2022-11-03T11:51:35.899Z,2.55
2022-11-03T11:52:42.880Z,2.70
2022-11-03T11:53:50.941Z,2.80
2022-11-03T11:54:57.249Z,2.90
2022-11-03T11:56:03.822Z,2.83
2022-11-03T11:57:17.661Z,3.10
2022-11-03T11:58:32.606Z,2.88
2022-11-03T11:59:36.391Z,6.43
2022-11-03T12:00:41.581Z,3.30
2022-11-03T12:01:45.395Z,2.70
2022-11-03T12:02:48.788Z,2.92
2022-11-03T12:03:53.811Z,2.70
2022-11-03T12:05:01.473Z,2.78
2022-11-03T12:06:05.370Z,2.55
2022-11-03T12:07:13.919Z,3.03
2022-11-03T12:08:21.439Z,3.33
2022-11-03T12:09:27.288Z,3.70
2022-11-03T12:10:31.603Z,3.75
2022-11-03T12:11:48.324Z,2.85
2022-11-03T12:12:51.947Z,4.45
2022-11-03T12:13:55.772Z,3.30
2022-11-03T12:14:58.541Z,3.15
2022-11-03T12:16:02.258Z,2.75
2022-11-03T12:17:34.306Z,3.10
2022-11-03T12:18:41.681Z,3.60
2022-11-03T12:19:48.547Z,3.45
2022-11-03T12:20:51.395Z,3.80
2022-11-03T12:21:55.957Z,3.22
2022-11-03T12:22:59.629Z,3.20
2022-11-03T12:24:02.275Z,3.60
2022-11-03T12:25:08.812Z,3.03
2022-11-03T12:26:19.799Z,2.97
2022-11-03T12:27:44.687Z,3.75
2022-11-03T12:28:48.352Z,2.80
2022-11-03T12:29:51.598Z,2.72
2022-11-03T12:30:55.347Z,3.25
2022-11-03T12:31:59.087Z,2.72
2022-11-03T12:33:02.854Z,4.18
2022-11-03T12:34:05.625Z,2.58
2022-11-03T12:35:11.330Z,2.55
2022-11-03T12:36:15.049Z,2.92
2022-11-03T12:37:17.799Z,3.20
2022-11-03T12:38:21.628Z,2.92
2022-11-03T12:39:24.289Z,3.67
2022-11-03T12:40:28.085Z,3.50
2022-11-03T12:41:30.749Z,3.45
2022-11-03T12:42:35.286Z,3.17
2022-11-03T12:43:40.500Z,3.70
2022-11-03T12:44:43.976Z,3.40
2022-11-03T12:45:47.937Z,2.90
2022-11-03T12:46:50.647Z,3.08
2022-11-03T12:47:54.327Z,3.05
2022-11-03T12:48:57.126Z,2.80
2022-11-03T12:50:00.952Z,2.95
2022-11-03T12:51:04.783Z,2.88
2022-11-03T12:52:08.750Z,3.33
2022-11-03T12:53:12.699Z,3.20
2022-11-03T12:54:15.369Z,3.40
2022-11-03T12:55:19.133Z,3.28
2022-11-03T12:56:21.839Z,2.80
2022-11-03T12:57:25.598Z,3.08
2022-11-03T12:58:29.335Z,3.17
2022-11-03T12:59:33.518Z,3.10
2022-11-03T13:00:37.307Z,3.30
2022-11-03T13:01:41.182Z,3.65
2022-11-03T13:02:44.129Z,3.35
2022-11-03T13:03:48.002Z,2.95
2022-11-03T13:04:50.679Z,3.53
2022-11-03T13:05:54.441Z,3.22
2022-11-03T13:06:57.202Z,4.20
2022-11-03T13:08:00.934Z,2.80
2022-11-03T13:09:04.748Z,8.05
2022-11-03T13:10:09.255Z,4.32
2022-11-03T13:11:27.037Z,2.17
2022-11-03T13:12:35.305Z,3.63
2022-11-03T13:13:39.149Z,3.25
2022-11-03T13:14:46.054Z,3.22
2022-11-03T13:15:53.222Z,3.00
2022-11-03T13:16:55.890Z,4.00
2022-11-03T13:18:12.865Z,3.17
2022-11-03T13:19:16.908Z,3.35
2022-11-03T13:20:20.725Z,3.08
2022-11-03T13:21:24.457Z,2.55
2022-11-03T13:22:28.177Z,2.90
2022-11-03T13:23:31.976Z,2.72
2022-11-03T13:24:34.717Z,3.38
2022-11-03T13:25:38.747Z,2.88
2022-11-03T13:26:41.748Z,2.88
2022-11-03T13:27:45.610Z,2.80
2022-11-03T13:28:49.616Z,3.30
2022-11-03T13:29:56.935Z,3.25
2022-11-03T13:31:01.092Z,3.38
2022-11-03T13:32:04.094Z,3.17
2022-11-03T13:33:08.061Z,4.35
2022-11-03T13:34:11.202Z,3.67
2022-11-03T13:35:15.142Z,4.93
2022-11-03T13:36:19.153Z,4.70
2022-11-03T13:37:23.256Z,3.45
2022-11-03T13:38:26.377Z,4.15
2022-11-03T13:39:30.315Z,4.15
2022-11-03T13:41:57.979Z,4.22
2022-11-03T13:43:00.627Z,3.90
2022-11-03T13:44:04.330Z,4.10
2022-11-03T13:45:11.106Z,3.72
2022-11-03T13:46:14.959Z,4.38
2022-11-03T13:47:17.737Z,4.30
2022-11-03T13:50:12.471Z,4.30
2022-11-03T13:51:12.319Z,3.60
2022-11-03T13:52:16.138Z,3.65
2022-11-03T13:56:07.810Z,4.63
2022-11-03T14:00:03.776Z,4.25
2022-11-03T14:01:17.863Z,6.38
2022-11-03T14:05:11.497Z,3.40
2022-11-03T14:06:14.422Z,3.70
2022-11-03T14:07:18.155Z,3.90
2022-11-03T14:08:20.820Z,4.60
2022-11-03T14:09:24.816Z,5.07
2022-11-03T14:10:28.568Z,4.22
2022-11-03T14:11:49.561Z,5.00
2022-11-03T14:12:52.217Z,3.97
2022-11-03T14:13:56.309Z,3.45
2022-11-03T14:15:00.103Z,3.40
2022-11-03T14:16:03.895Z,3.35
2022-11-03T14:17:08.089Z,3.42
2022-11-03T14:18:11.968Z,3.50
2022-11-03T14:19:14.615Z,3.25
2022-11-03T14:20:18.409Z,3.35
2022-11-03T14:21:21.218Z,4.28
2022-11-03T14:22:25.467Z,3.65
2022-11-03T14:23:28.098Z,4.32
2022-11-03T14:24:31.892Z,4.10
2022-11-03T14:25:35.657Z,5.15
2022-11-03T14:26:43.084Z,5.22
2022-11-03T14:27:47.214Z,4.03
2022-11-03T14:28:50.568Z,3.60
2022-11-03T14:29:54.299Z,3.83
2022-11-03T14:30:59.974Z,3.42
2022-11-03T14:32:03.941Z,4.45
2022-11-03T14:33:09.787Z,4.80
2022-11-03T14:34:12.804Z,8.50
2022-11-03T14:35:16.728Z,5.47
2022-11-03T14:36:19.668Z,6.28
2022-11-03T14:37:25.601Z,4.95
2022-11-03T14:38:28.939Z,4.65
2022-11-03T14:39:33.668Z,3.85
2022-11-03T14:40:55.094Z,4.50
2022-11-03T14:42:05.821Z,4.18